Gujranwala Weather



Gujranwala's Current Weather

Temprature 33o moderate rain

moderate rain

Rain: 0 %

Min Temprature33o
Max Temprature33o
Humidity79
Wind Speed5.1 m/h
Sun Rise05:26:23
Sun Set18:49:58
Current Time: 13-Aug-2020 19:54:34
Lat/Lon: 32.16, 74.19




Gujranwala's Geo Location



Gujranwala's Weather Forecast

Time Overall Temp Min Temp Max Temp Humidity Wind Speed Rain
13-Aug-2020 (Thu)
20:00:00 moderate rain 31.500 29.930 31.500 78 5.69 m/h 580 %
23:00:00 broken clouds 29.790 28.900 29.790 80 4.18 m/h 0 %
14-Aug-2020 (Fri)
02:00:00 scattered clouds 27.980 27.640 27.980 84 4.62 m/h 0 %
05:00:00 light rain 26.770 26.720 26.770 86 4.12 m/h 39 %
08:00:00 moderate rain 27.890 27.890 27.890 80 3.23 m/h 311 %
11:00:00 light rain 33.700 33.700 33.700 57 3.32 m/h 25 %
14:00:00 clear sky 37.250 37.250 37.250 45 1.56 m/h 0 %
17:00:00 few clouds 36.650 36.650 36.650 46 2.2 m/h 0 %
20:00:00 scattered clouds 32.950 32.950 32.950 57 3 m/h 0 %
23:00:00 few clouds 31.060 31.060 31.060 66 3.27 m/h 0 %
15-Aug-2020 (Sat)
02:00:00 clear sky 29.930 29.930 29.930 71 3.29 m/h 0 %
05:00:00 clear sky 29.000 29.000 29.000 75 2.64 m/h 0 %
08:00:00 clear sky 31.920 31.920 31.920 64 2.95 m/h 0 %
11:00:00 clear sky 36.340 36.340 36.340 47 2.93 m/h 0 %
14:00:00 few clouds 38.980 38.980 38.980 39 1.41 m/h 0 %
17:00:00 scattered clouds 38.310 38.310 38.310 40 2.58 m/h 0 %
20:00:00 clear sky 33.790 33.790 33.790 55 3.69 m/h 0 %
23:00:00 clear sky 32.460 32.460 32.460 58 3.54 m/h 0 %
16-Aug-2020 (Sun)
02:00:00 light rain 30.620 30.620 30.620 67 2.84 m/h 35 %
05:00:00 light rain 28.750 28.750 28.750 78 3.08 m/h 114 %
08:00:00 moderate rain 29.760 29.760 29.760 77 4.08 m/h 385 %
11:00:00 light rain 35.600 35.600 35.600 53 2.53 m/h 30 %
14:00:00 light rain 37.300 37.300 37.300 46 2.73 m/h 179 %
17:00:00 scattered clouds 37.490 37.490 37.490 45 2.24 m/h 0 %
20:00:00 clear sky 33.700 33.700 33.700 55 3.27 m/h 0 %
23:00:00 clear sky 31.960 31.960 31.960 62 3.42 m/h 0 %
17-Aug-2020 (Mon)
02:00:00 light rain 30.600 30.600 30.600 69 3.5 m/h 16 %
05:00:00 light rain 28.680 28.680 28.680 79 3.56 m/h 195 %
08:00:00 clear sky 30.410 30.410 30.410 75 4.74 m/h 0 %
11:00:00 moderate rain 35.770 35.770 35.770 53 3.7 m/h 326 %
14:00:00 light rain 37.090 37.090 37.090 48 3.74 m/h 21 %
17:00:00 broken clouds 35.630 35.630 35.630 54 4.47 m/h 0 %
20:00:00 light rain 31.910 31.910 31.910 67 3.07 m/h 41 %
23:00:00 broken clouds 31.170 31.170 31.170 68 2.67 m/h 0 %
18-Aug-2020 (Tue)
02:00:00 light rain 29.900 29.900 29.900 75 2.49 m/h 55 %
05:00:00 light rain 28.380 28.380 28.380 83 2.55 m/h 225 %
08:00:00 overcast clouds 29.590 29.590 29.590 80 4.21 m/h 0 %
11:00:00 light rain 34.790 34.790 34.790 57 3.41 m/h 35 %
14:00:00 broken clouds 37.450 37.450 37.450 48 3.73 m/h 0 %
17:00:00 broken clouds 35.220 35.220 35.220 55 5.01 m/h 0 %

Famous Cities (60)